• Join FlightAware (Why Join?)
  • Login
  • US Flag 
02:35PM EDT


 

Airport Tracker/Info


-or-


 

Live Flight TrackerFlight Track Log ✈ UAL4476 ✈ 04-Apr-2013 ✈ KCLE - KDAY

Flight Track Log - Related Links

Times and Time Zones

All times are in EDT time to prevent confusion due to time zone crossing. See the UAL4476 flight status page for this flight to view local times or setup timezone preferences in your user account.

Time Position Orientation Groundspeed Altitude Reporting Facility
EDT Latitude Longitude Course Direction KTS MPH feet Rate Location/Type
12:47PM 41.3897 -81.8811 252° West 156 180 2,100  Level Cleveland Center
12:48PM 41.3700 -81.9639 252° West 227 261 4,700 2,340 Climbing Cleveland Center
12:48PM 41.3719 -81.9886 276° West 234 269 5,600 2,520 Climbing Cleveland Center
12:49PM 41.3769 -82.0803 274° West 242 278 8,200 2,160 Climbing Cleveland Center
12:50PM 41.3464 -82.1681 245° Southwest 252 290 10,000 900 Climbing Cleveland Center
12:51PM 41.3011 -82.2747 241° Southwest 301 346 10,000  Level Cleveland Center
12:52PM 41.2603 -82.3703 240° Southwest 332 382 10,100  Climbing Cleveland Center
12:53PM 41.2147 -82.4794 241° Southwest 338 389 10,000 -60 Descending Cleveland Center
12:54PM 41.1689 -82.5858 240° Southwest 338 389 10,000  Level Cleveland Center
12:55PM 41.1211 -82.6944 240° Southwest 338 389 10,100  Climbing Cleveland Center
12:56PM 41.0714 -82.7894 235° Southwest 333 383 10,100 -60 Level Cleveland Center
12:57PM 41.0133 -82.8864 232° Southwest 333 383 10,000 -120 Descending Cleveland Center
12:58PM 40.9528 -82.9806 230° Southwest 338 389 9,900  Descending Cleveland Center
12:59PM 40.8881 -83.0853 231° Southwest 346 398 10,000  Climbing Cleveland Center
01:00PM 40.8297 -83.1819 231° Southwest 346 398 9,900 -60 Descending Cleveland Center
01:02PM 40.7436 -83.3197 231° Southwest 336 387 9,900  Level Indianapolis Center
01:03PM 40.6844 -83.4147 231° Southwest 334 384 9,900  Level Indianapolis Center
01:04PM 40.6244 -83.5097 230° Southwest 335 386 9,900 60 Level Indianapolis Center
01:05PM 40.5814 -83.5808 231° Southwest 336 387 10,000  Climbing Indianapolis Center
01:05PM 40.5644 -83.6056 228° Southwest 336 387 9,900  Descending Indianapolis Center
01:06PM 40.5222 -83.6750 231° Southwest 337 388 10,000  Climbing Indianapolis Center
01:06PM 40.4953 -83.7178 230° Southwest 337 388 9,900  Descending Indianapolis Center
01:07PM 40.4631 -83.7689 230° Southwest 337 388 10,000  Climbing Indianapolis Center
01:07PM 40.4344 -83.8128 229° Southwest 337 388 9,900  Descending Indianapolis Center
01:08PM 40.4014 -83.8625 229° Southwest 337 388 10,000  Climbing Indianapolis Center
01:08PM 40.3708 -83.9033 226° Southwest 338 389 9,900  Descending Indianapolis Center
01:09PM 40.3297 -83.9544 223° Southwest 335 386 10,000  Climbing Indianapolis Center
01:09PM 40.3017 -83.9878 222° Southwest 338 389 9,900  Descending Indianapolis Center
01:10PM 40.2625 -84.0386 225° Southwest 336 387 10,000  Climbing Indianapolis Center
01:10PM 40.2342 -84.0711 221° Southwest 335 386 9,900 -300 Descending Indianapolis Center
01:11PM 40.2025 -84.1100 223° Southwest 282 325 9,700 -900 Descending Indianapolis Center
01:11PM 40.1797 -84.1392 224° Southwest 288 331 9,000 -1,680 Descending Indianapolis Center
01:12PM 40.1533 -84.1747 226° Southwest 261 300 8,200 -1,560 Descending Indianapolis Center
01:12PM 40.1258 -84.2108 225° Southwest 278 320 7,400 -1,620 Descending Indianapolis Center
01:13PM 40.0997 -84.2439 224° Southwest 269 310 6,600 -1,860 Descending Indianapolis Center
01:13PM 40.0650 -84.2911 226° Southwest 271 312 5,500 -1,500 Descending Indianapolis Center
01:14PM 40.0483 -84.3108 222° Southwest 261 300 5,100 -1,200 Descending Indianapolis Center
01:14PM 40.0089 -84.3442 213° Southwest 270 311 4,300 -1,200 Descending Indianapolis Center
01:15PM 39.9850 -84.3431 178° South 239 275 3,900 -900 Descending Indianapolis Center
01:15PM 39.9469 -84.3353 171° South 239 275 3,400 -540 Descending Indianapolis Center
01:16PM 39.9272 -84.3297 168° South 202 232 3,400 -300 Level Indianapolis Center
01:16PM 39.8919 -84.3167 164° South 218 251 3,100 -540 Descending Indianapolis Center
01:17PM 39.8769 -84.3039 147° Southeast 181 208 2,900 -780 Descending Indianapolis Center
01:17PM 39.8661 -84.2764 117° Southeast 174 200 2,300 -1,140 Descending Indianapolis Center
01:18PM 39.8722 -84.2597 64° Northeast 119 137 1,800 -240 Descending Indianapolis Center
01:18PM 39.8725 -84.2303 89° East 166 191 2,100 360 Climbing Indianapolis Center
01:20PM 39.9000 -84.2167 123° Southeast  Level FlightAware Approximate